Time;durP1;ratioP1;P1;durP2;ratioP2;P2;SDS_P1;SDS_P2;PMS_P1;PMS_P2;Temp;Humidity;BMP_temperature;BMP_pressure;BME280_temperature;BME280_humidity;BME280_pressure;Samples;Min_cycle;Max_cycle;Signal;HPM_P1;HPM_P2
2023/06/15 00:01:33;;;;;;;;;;;19.20;53.60;;;;;;6248963;22;19907;-77
2023/06/15 00:04:00;;;;;;;;;;;19.20;53.60;;;;;;6249487;22;19915;-77
2023/06/15 00:06:27;;;;;;;;;;;19.10;53.80;;;;;;6223552;22;19907;-77
2023/06/15 00:08:55;;;;;;;;;;;19.10;54.00;;;;;;6249857;22;19922;-77
2023/06/15 00:11:20;;;;;;;;;;;19.00;53.90;;;;;;6276047;22;20320;-76
2023/06/15 00:14:08;;;;;;;;;;;19.10;54.10;;;;;;6249616;22;19915;-76
2023/06/15 00:16:41;;;;;;;;;;;19.00;54.10;;;;;;6275811;22;19944;-76
2023/06/15 00:19:08;;;;;;;;;;;19.00;54.20;;;;;;6251303;22;19923;-76
2023/06/15 00:21:41;;;;;;;;;;;19.00;54.20;;;;;;6275707;22;19911;-77
2023/06/15 00:24:25;;;;;;;;;;;18.90;54.30;;;;;;6250901;22;19919;-76
2023/06/15 00:26:51;;;;;;;;;;;18.90;54.30;;;;;;6250625;22;19907;-76
2023/06/15 00:29:17;;;;;;;;;;;18.90;54.60;;;;;;6251389;22;20351;-76
2023/06/15 00:31:43;;;;;;;;;;;18.90;54.70;;;;;;6250711;22;20247;-76
2023/06/15 00:34:10;;;;;;;;;;;18.90;54.70;;;;;;6251386;22;19915;-77
2023/06/15 00:36:36;;;;;;;;;;;18.90;54.70;;;;;;6250561;22;19933;-76
2023/06/15 00:39:01;;;;;;;;;;;18.90;54.70;;;;;;6251303;22;20388;-77
2023/06/15 00:41:28;;;;;;;;;;;18.90;54.70;;;;;;6250561;22;20279;-77
2023/06/15 00:43:53;;;;;;;;;;;18.90;54.60;;;;;;6251190;22;19911;-76
2023/06/15 00:46:20;;;;;;;;;;;18.90;54.60;;;;;;6250104;22;19917;-76
2023/06/15 00:48:46;;;;;;;;;;;18.90;54.60;;;;;;6225823;22;19990;-77
2023/06/15 00:51:12;;;;;;;;;;;18.80;53.90;;;;;;6250454;22;19908;-77
2023/06/15 00:53:38;;;;;;;;;;;18.90;54.10;;;;;;6225537;22;19945;-76
2023/06/15 00:56:05;;;;;;;;;;;18.90;55.40;;;;;;6277360;22;19911;-77
2023/06/15 00:58:31;;;;;;;;;;;18.90;54.30;;;;;;6250924;22;19922;-75
2023/06/15 01:00:57;;;;;;;;;;;19.00;54.40;;;;;;6277376;22;19907;-77
2023/06/15 01:03:23;;;;;;;;;;;18.90;53.60;;;;;;6250913;22;19973;-76
2023/06/15 01:05:53;;;;;;;;;;;19.00;54.20;;;;;;6277411;22;20218;-76
2023/06/15 01:08:20;;;;;;;;;;;19.00;53.80;;;;;;6251059;22;19921;-76
2023/06/15 01:10:47;;;;;;;;;;;19.00;53.90;;;;;;6277166;22;19915;-76
2023/06/15 01:13:13;;;;;;;;;;;19.10;53.90;;;;;;6250519;22;19919;-77
2023/06/15 01:15:43;;;;;;;;;;;19.10;53.70;;;;;;6250199;22;20301;-77
2023/06/15 01:18:09;;;;;;;;;;;19.10;53.50;;;;;;6277799;22;19961;-76
2023/06/15 01:20:42;;;;;;;;;;;19.10;54.40;;;;;;6224787;22;19907;-76
2023/06/15 01:23:27;;;;;;;;;;;19.10;53.60;;;;;;6250801;22;20344;-76
2023/06/15 01:26:17;;;;;;;;;;;19.10;53.70;;;;;;6277274;22;19985;-76
2023/06/15 01:29:15;;;;;;;;;;;19.10;53.60;;;;;;6278370;22;20012;-76
2023/06/15 01:31:41;;;;;;;;;;;19.10;53.60;;;;;;6250511;22;20017;-77
2023/06/15 01:34:07;;;;;;;;;;;19.10;53.60;;;;;;6250442;22;19915;-76
2023/06/15 01:36:33;;;;;;;;;;;19.10;53.90;;;;;;6249341;22;20327;-77
2023/06/15 01:39:00;;;;;;;;;;;19.10;53.90;;;;;;6225223;22;19938;-76
2023/06/15 01:41:26;;;;;;;;;;;19.10;53.70;;;;;;6277007;22;19907;-76
2023/06/15 01:43:53;;;;;;;;;;;19.00;53.60;;;;;;6225107;22;19926;-76
2023/06/15 01:46:20;;;;;;;;;;;19.00;53.70;;;;;;6249505;22;19966;-76
2023/06/15 01:48:46;;;;;;;;;;;19.00;53.60;;;;;;6250510;22;20206;-76
2023/06/15 01:51:12;;;;;;;;;;;19.00;53.60;;;;;;6249960;22;19934;-76
2023/06/15 01:53:38;;;;;;;;;;;18.90;53.50;;;;;;6250166;22;20041;-76
2023/06/15 01:56:04;;;;;;;;;;;18.90;53.80;;;;;;6249692;22;19943;-76
2023/06/15 01:58:30;;;;;;;;;;;18.90;53.20;;;;;;6250229;22;19938;-76
2023/06/15 02:00:56;;;;;;;;;;;18.90;53.70;;;;;;6276763;22;19954;-77
2023/06/15 02:03:22;;;;;;;;;;;18.80;53.50;;;;;;6277553;22;20308;-76
2023/06/15 02:05:48;;;;;;;;;;;18.80;53.50;;;;;;6249729;22;19982;-77
2023/06/15 02:08:14;;;;;;;;;;;18.80;53.60;;;;;;6250374;22;19922;-76
2023/06/15 02:10:40;;;;;;;;;;;18.80;53.50;;;;;;6224247;22;20240;-77
2023/06/15 02:13:11;;;;;;;;;;;18.70;53.60;;;;;;6250145;22;19994;-77
2023/06/15 02:15:38;;;;;;;;;;;18.70;53.40;;;;;;6249632;22;19946;-76
2023/06/15 02:18:24;;;;;;;;;;;18.70;53.50;;;;;;6250258;22;20012;-77
2023/06/15 02:20:50;;;;;;;;;;;18.60;53.20;;;;;;6249416;22;20312;-76
2023/06/15 02:23:17;;;;;;;;;;;18.60;53.20;;;;;;6224621;22;19997;-77
2023/06/15 02:25:43;;;;;;;;;;;18.60;53.20;;;;;;6249907;22;19990;-77
2023/06/15 02:28:09;;;;;;;;;;;18.60;53.00;;;;;;6224626;22;20325;-76
2023/06/15 02:30:35;;;;;;;;;;;18.60;52.80;;;;;;6249556;22;19907;-77
2023/06/15 02:33:01;;;;;;;;;;;18.60;52.80;;;;;;6224387;22;19942;-76
2023/06/15 02:35:27;;;;;;;;;;;18.60;52.70;;;;;;6249641;22;19982;-76
2023/06/15 02:37:53;;;;;;;;;;;18.50;52.20;;;;;;6249825;22;19997;-77
2023/06/15 02:40:19;;;;;;;;;;;18.50;52.70;;;;;;6249420;22;20277;-78
2023/06/15 02:42:45;;;;;;;;;;;18.50;52.70;;;;;;6249939;22;19915;-77
2023/06/15 02:45:11;;;;;;;;;;;18.40;52.80;;;;;;6249149;22;19907;-77
2023/06/15 02:47:37;;;;;;;;;;;18.40;52.80;;;;;;6276580;22;20319;-76
2023/06/15 02:50:04;;;;;;;;;;;18.40;52.80;;;;;;6276659;22;19918;-76
2023/06/15 02:52:30;;;;;;;;;;;18.40;52.70;;;;;;6249448;22;20257;-77
2023/06/15 02:55:17;;;;;;;;;;;18.40;52.90;;;;;;6249998;22;19907;-77
2023/06/15 02:57:43;;;;;;;;;;;18.40;52.80;;;;;;6276639;22;20225;-77
2023/06/15 03:00:12;;;;;;;;;;;18.30;52.90;;;;;;6276212;22;19945;-77
2023/06/15 03:02:38;;;;;;;;;;;18.30;52.70;;;;;;6250474;22;20317;-76
2023/06/15 03:05:04;;;;;;;;;;;18.30;52.80;;;;;;6249510;22;19979;-77
2023/06/15 03:07:30;;;;;;;;;;;18.20;52.20;;;;;;6249259;22;20335;-76
2023/06/15 03:09:56;;;;;;;;;;;18.30;52.80;;;;;;6249703;22;19908;-76
2023/06/15 03:12:22;;;;;;;;;;;18.20;52.20;;;;;;6248964;22;20287;-77
2023/06/15 03:14:50;;;;;;;;;;;18.20;52.60;;;;;;6249341;22;19915;-77
2023/06/15 03:17:34;;;;;;;;;;;18.30;52.60;;;;;;6276313;22;19915;-76
2023/06/15 03:20:00;;;;;;;;;;;18.30;52.60;;;;;;6249637;22;19907;-77
2023/06/15 03:22:27;;;;;;;;;;;18.20;53.00;;;;;;6249010;22;19915;-76
2023/06/15 03:24:54;;;;;;;;;;;18.20;53.10;;;;;;6224431;22;19964;-76
2023/06/15 03:27:20;;;;;;;;;;;18.20;53.00;;;;;;6276096;22;19922;-76
2023/06/15 03:29:49;;;;;;;;;;;18.20;53.00;;;;;;6276544;22;19907;-77
2023/06/15 03:32:15;;;;;;;;;;;18.10;53.10;;;;;;6276076;22;21762;-76
2023/06/15 03:34:43;;;;;;;;;;;18.20;53.30;;;;;;6249609;22;19946;-76
2023/06/15 03:37:09;;;;;;;;;;;18.20;53.40;;;;;;6224274;22;19976;-76
2023/06/15 03:39:35;;;;;;;;;;;18.20;53.40;;;;;;6224132;22;19911;-76
2023/06/15 03:42:02;;;;;;;;;;;18.20;52.60;;;;;;6248864;22;19907;-77
2023/06/15 03:44:28;;;;;;;;;;;18.20;53.10;;;;;;6249819;22;19912;-77
2023/06/15 03:46:54;;;;;;;;;;;18.20;53.10;;;;;;6275690;22;19990;-76
2023/06/15 03:49:22;;;;;;;;;;;18.30;53.10;;;;;;6249789;22;20239;-77
2023/06/15 03:51:48;;;;;;;;;;;18.20;52.60;;;;;;6249312;22;19911;-77
2023/06/15 03:54:14;;;;;;;;;;;18.30;53.20;;;;;;6224378;22;19922;-76
2023/06/15 03:56:41;;;;;;;;;;;18.20;53.10;;;;;;6248826;22;19907;-76
2023/06/15 03:59:07;;;;;;;;;;;18.20;53.00;;;;;;6249174;22;19921;-76
2023/06/15 04:01:33;;;;;;;;;;;18.30;53.00;;;;;;6250942;22;20248;-77
2023/06/15 04:03:59;;;;;;;;;;;18.30;53.00;;;;;;6251608;22;20240;-77
2023/06/15 04:06:25;;;;;;;;;;;18.30;53.00;;;;;;6277863;22;19907;-76
2023/06/15 04:08:51;;;;;;;;;;;18.30;53.00;;;;;;6251551;22;19915;-76
2023/06/15 04:11:17;;;;;;;;;;;18.30;53.10;;;;;;6250707;22;19914;-76
2023/06/15 04:13:43;;;;;;;;;;;18.30;53.10;;;;;;6251305;22;19919;-76
2023/06/15 04:16:10;;;;;;;;;;;18.30;53.00;;;;;;6250737;22;20244;-77
2023/06/15 04:18:36;;;;;;;;;;;18.30;53.00;;;;;;6251644;22;19915;-76
2023/06/15 04:21:04;;;;;;;;;;;18.30;52.90;;;;;;6250759;22;20074;-77
2023/06/15 04:23:30;;;;;;;;;;;18.30;52.60;;;;;;6251313;22;19915;-76
2023/06/15 04:25:58;;;;;;;;;;;18.40;52.60;;;;;;6250759;22;19969;-76
2023/06/15 04:28:24;;;;;;;;;;;18.40;52.40;;;;;;6226361;22;20249;-76
2023/06/15 04:31:05;;;;;;;;;;;18.40;51.80;;;;;;6250632;22;19908;-76
2023/06/15 04:33:32;;;;;;;;;;;18.40;52.10;;;;;;6251302;22;20360;-76
2023/06/15 04:35:58;;;;;;;;;;;18.50;52.40;;;;;;6250100;22;19960;-76
2023/06/15 04:38:24;;;;;;;;;;;18.50;52.20;;;;;;6250845;22;20348;-76
2023/06/15 04:40:51;;;;;;;;;;;18.60;52.20;;;;;;6250790;22;19907;-76
2023/06/15 04:43:18;;;;;;;;;;;18.60;52.00;;;;;;6225679;22;19915;-76
2023/06/15 04:45:44;;;;;;;;;;;18.60;51.80;;;;;;6249897;22;20232;-76
2023/06/15 04:48:11;;;;;;;;;;;18.60;51.80;;;;;;6250946;22;19915;-77
2023/06/15 04:50:44;;;;;;;;;;;18.70;51.70;;;;;;6277475;22;19907;-76
2023/06/15 04:53:10;;;;;;;;;;;18.70;51.70;;;;;;6278253;22;19915;-76
2023/06/15 04:55:36;;;;;;;;;;;18.80;51.50;;;;;;6250319;22;19954;-76
2023/06/15 04:58:04;;;;;;;;;;;18.80;51.50;;;;;;6250809;22;19919;-76
2023/06/15 05:00:30;;;;;;;;;;;18.80;51.60;;;;;;6250762;22;19913;-76
2023/06/15 05:02:56;;;;;;;;;;;18.90;51.40;;;;;;6225216;22;19915;-76
2023/06/15 05:05:21;;;;;;;;;;;19.00;51.40;;;;;;6250319;22;19994;-76
2023/06/15 05:07:47;;;;;;;;;;;19.00;51.40;;;;;;6250460;22;19949;-76
2023/06/15 05:10:13;;;;;;;;;;;19.10;51.40;;;;;;6250069;22;19994;-76
2023/06/15 05:12:39;;;;;;;;;;;19.20;51.30;;;;;;6250726;22;19915;-77
2023/06/15 05:15:06;;;;;;;;;;;19.20;51.10;;;;;;6250386;22;19934;-77
2023/06/15 05:17:31;;;;;;;;;;;19.30;51.10;;;;;;6250482;22;19915;-76
2023/06/15 05:19:57;;;;;;;;;;;19.30;51.20;;;;;;6225289;22;20289;-76
2023/06/15 05:22:23;;;;;;;;;;;19.30;51.10;;;;;;6224554;22;20328;-76
2023/06/15 05:24:49;;;;;;;;;;;19.30;51.00;;;;;;6277093;22;19931;-76
2023/06/15 05:27:15;;;;;;;;;;;19.40;50.70;;;;;;6275556;22;19923;-76
2023/06/15 05:29:41;;;;;;;;;;;19.50;50.80;;;;;;6250564;22;20370;-76
2023/06/15 05:32:08;;;;;;;;;;;19.60;50.60;;;;;;6276773;22;19953;-76
2023/06/15 05:34:33;;;;;;;;;;;19.60;50.30;;;;;;6250196;22;20325;-76
2023/06/15 05:36:59;;;;;;;;;;;19.70;50.30;;;;;;6250114;22;19953;-76
2023/06/15 05:39:25;;;;;;;;;;;19.80;50.20;;;;;;6250623;22;19927;-76
2023/06/15 05:41:51;;;;;;;;;;;19.80;49.90;;;;;;6249761;22;19946;-76
2023/06/15 05:44:17;;;;;;;;;;;19.90;49.90;;;;;;6250385;22;20291;-76
2023/06/15 05:46:43;;;;;;;;;;;20.00;49.50;;;;;;6224039;22;19953;-76
2023/06/15 05:49:09;;;;;;;;;;;20.10;49.10;;;;;;6250609;22;19945;-76
2023/06/15 05:51:35;;;;;;;;;;;20.10;49.10;;;;;;6249816;22;19943;-76
2023/06/15 05:54:01;;;;;;;;;;;20.20;49.00;;;;;;6277748;22;20305;-76
2023/06/15 05:56:27;;;;;;;;;;;20.30;48.90;;;;;;6249550;22;19950;-76
2023/06/15 05:58:52;;;;;;;;;;;20.40;48.80;;;;;;6225033;22;20043;-76
2023/06/15 06:01:19;;;;;;;;;;;20.50;48.60;;;;;;6276678;22;20348;-77
2023/06/15 06:03:45;;;;;;;;;;;20.50;48.30;;;;;;6277732;22;19919;-77
2023/06/15 06:06:11;;;;;;;;;;;20.60;48.20;;;;;;6249791;22;19907;-77
2023/06/15 06:08:36;;;;;;;;;;;20.70;48.10;;;;;;6250379;22;19922;-77
2023/06/15 06:11:07;;;;;;;;;;;20.70;48.00;;;;;;6249676;22;19950;-76
2023/06/15 06:13:34;;;;;;;;;;;20.80;48.00;;;;;;6225900;22;20360;-76
2023/06/15 06:16:01;;;;;;;;;;;20.80;47.90;;;;;;6224332;22;19907;-75
2023/06/15 06:18:27;;;;;;;;;;;20.90;47.80;;;;;;6249970;22;19922;-76
2023/06/15 06:20:55;;;;;;;;;;;21.00;47.70;;;;;;6276571;22;19907;-76
2023/06/15 06:23:21;;;;;;;;;;;21.10;47.50;;;;;;6276559;22;19915;-76
2023/06/15 06:25:47;;;;;;;;;;;21.20;47.40;;;;;;6276513;22;19933;-77
2023/06/15 06:28:13;;;;;;;;;;;21.40;47.20;;;;;;6250113;22;20002;-76
2023/06/15 06:30:39;;;;;;;;;;;21.50;47.10;;;;;;6249486;22;19907;-76
2023/06/15 06:33:05;;;;;;;;;;;21.60;46.90;;;;;;6277109;22;19993;-77
2023/06/15 06:35:31;;;;;;;;;;;21.60;46.00;;;;;;6249385;22;19934;-77
2023/06/15 06:37:56;;;;;;;;;;;21.80;47.20;;;;;;6249667;22;20329;-77
2023/06/15 06:40:22;;;;;;;;;;;21.80;46.10;;;;;;6249475;22;20301;-77
2023/06/15 06:42:48;;;;;;;;;;;21.90;46.00;;;;;;6224420;22;20312;-77
2023/06/15 06:45:15;;;;;;;;;;;22.00;45.80;;;;;;6249464;22;19911;-77
2023/06/15 06:47:41;;;;;;;;;;;22.10;45.30;;;;;;6219209;23;19969;-77
2023/06/15 06:50:07;;;;;;;;;;;22.10;45.50;;;;;;6245816;22;19911;-76
2023/06/15 06:52:33;;;;;;;;;;;22.10;45.30;;;;;;6245939;22;20297;-77
2023/06/15 06:54:59;;;;;;;;;;;22.20;45.30;;;;;;6244601;23;19935;-76
2023/06/15 06:57:25;;;;;;;;;;;22.20;45.20;;;;;;6245390;22;19923;-77
2023/06/15 06:59:51;;;;;;;;;;;22.30;45.70;;;;;;6246060;22;19962;-76
2023/06/15 07:02:17;;;;;;;;;;;22.30;44.60;;;;;;6245555;22;20278;-76
2023/06/15 07:04:42;;;;;;;;;;;22.40;44.00;;;;;;6246184;22;19982;-78
2023/06/15 07:07:08;;;;;;;;;;;22.40;44.00;;;;;;6243983;22;19999;-77
2023/06/15 07:09:34;;;;;;;;;;;22.50;43.90;;;;;;6244556;23;19943;-76
2023/06/15 07:12:00;;;;;;;;;;;22.50;43.70;;;;;;6243906;22;20270;-76
2023/06/15 07:14:26;;;;;;;;;;;22.70;43.60;;;;;;6244656;23;19911;-76
2023/06/15 07:16:52;;;;;;;;;;;22.80;42.90;;;;;;6218945;23;19913;-76
2023/06/15 07:19:18;;;;;;;;;;;22.90;42.70;;;;;;6246631;22;19947;-76
2023/06/15 07:21:44;;;;;;;;;;;23.00;42.50;;;;;;6243933;23;19908;-76
2023/06/15 07:24:10;;;;;;;;;;;23.00;42.40;;;;;;6244827;22;19958;-76
2023/06/15 07:26:36;;;;;;;;;;;23.10;42.80;;;;;;6269449;22;19990;-76
2023/06/15 07:29:02;;;;;;;;;;;23.30;43.80;;;;;;6244712;23;19916;-76
2023/06/15 07:31:27;;;;;;;;;;;23.50;42.90;;;;;;6245471;22;20325;-76
2023/06/15 07:33:54;;;;;;;;;;;23.50;42.60;;;;;;6245318;23;19954;-76
2023/06/15 07:36:20;;;;;;;;;;;23.60;42.60;;;;;;6246206;23;19907;-77
2023/06/15 07:38:46;;;;;;;;;;;23.70;41.70;;;;;;6247689;22;19916;-76
2023/06/15 07:41:12;;;;;;;;;;;23.70;42.10;;;;;;6246040;23;20393;-76
2023/06/15 07:43:37;;;;;;;;;;;23.70;41.70;;;;;;6248391;22;20002;-77
2023/06/15 07:46:03;;;;;;;;;;;23.80;41.50;;;;;;6255121;22;20006;-78
2023/06/15 07:48:32;;;;;;;;;;;23.90;41.50;;;;;;6226228;22;20209;-78
2023/06/15 07:50:58;;;;;;;;;;;24.10;41.30;;;;;;6278042;22;19911;-76
2023/06/15 07:53:24;;;;;;;;;;;24.30;41.50;;;;;;6278871;22;19954;-77
2023/06/15 07:55:49;;;;;;;;;;;24.40;40.90;;;;;;6225531;22;20292;-76
2023/06/15 07:58:15;;;;;;;;;;;24.50;40.30;;;;;;6251426;22;19919;-77
2023/06/15 08:00:41;;;;;;;;;;;24.60;39.90;;;;;;6225483;22;19939;-78
2023/06/15 08:03:07;;;;;;;;;;;24.80;39.90;;;;;;6251335;22;19915;-77
2023/06/15 08:05:33;;;;;;;;;;;24.90;39.70;;;;;;6250852;22;20320;-79
2023/06/15 08:07:59;;;;;;;;;;;25.00;39.40;;;;;;6251415;22;20336;-79
2023/06/15 08:10:25;;;;;;;;;;;25.00;39.10;;;;;;6250866;22;19911;-77
2023/06/15 08:12:50;;;;;;;;;;;25.00;39.10;;;;;;6251100;22;19946;-76
2023/06/15 08:15:16;;;;;;;;;;;25.00;39.20;;;;;;6250789;22;19942;-77
2023/06/15 08:17:42;;;;;;;;;;;25.00;39.30;;;;;;6251451;22;19994;-76
2023/06/15 08:20:09;;;;;;;;;;;25.10;39.00;;;;;;6276086;22;19907;-77
2023/06/15 08:22:55;;;;;;;;;;;25.10;38.20;;;;;;6251283;22;19915;-77
2023/06/15 08:25:21;;;;;;;;;;;25.30;38.40;;;;;;6277667;22;19907;-77
2023/06/15 08:27:47;;;;;;;;;;;25.30;38.10;;;;;;6278080;22;19939;-77
2023/06/15 08:30:13;;;;;;;;;;;25.40;38.30;;;;;;6250679;22;20364;-77
2023/06/15 08:32:39;;;;;;;;;;;25.30;38.00;;;;;;6225683;22;20325;-76
2023/06/15 08:35:06;;;;;;;;;;;25.40;37.70;;;;;;6250799;22;19911;-77
2023/06/15 08:37:32;;;;;;;;;;;25.50;37.40;;;;;;6250759;22;19951;-77
2023/06/15 08:39:58;;;;;;;;;;;25.50;37.40;;;;;;6277967;22;19937;-77
2023/06/15 08:42:25;;;;;;;;;;;25.50;37.20;;;;;;6250517;22;19942;-76
2023/06/15 08:44:54;;;;;;;;;;;25.60;37.20;;;;;;6250473;22;19907;-77
2023/06/15 08:47:21;;;;;;;;;;;25.80;37.10;;;;;;6245235;23;19915;-77
2023/06/15 08:49:48;;;;;;;;;;;25.80;37.10;;;;;;6245658;23;20379;-77
2023/06/15 08:52:16;;;;;;;;;;;25.80;36.80;;;;;;6245193;22;20353;-76
2023/06/15 08:54:42;;;;;;;;;;;25.90;36.60;;;;;;6245808;23;19907;-76
2023/06/15 08:57:09;;;;;;;;;;;26.00;36.20;;;;;;6245075;23;19914;-77
2023/06/15 08:59:36;;;;;;;;;;;26.20;36.10;;;;;;6245793;22;19953;-76
2023/06/15 09:02:03;;;;;;;;;;;26.40;36.10;;;;;;6244216;22;19907;-76
2023/06/15 09:04:31;;;;;;;;;;;26.40;35.30;;;;;;6245717;22;19937;-78
2023/06/15 09:06:58;;;;;;;;;;;26.60;35.40;;;;;;6245032;23;19915;-76
2023/06/15 09:09:25;;;;;;;;;;;26.80;35.60;;;;;;6245649;23;19911;-77
2023/06/15 09:11:51;;;;;;;;;;;26.80;35.00;;;;;;6246532;22;20381;-77
2023/06/15 09:14:17;;;;;;;;;;;26.80;34.40;;;;;;6220230;23;19961;-77
2023/06/15 09:16:43;;;;;;;;;;;26.90;34.30;;;;;;6244749;23;20310;-76
2023/06/15 09:21:55;;;;;;;;;;;26.90;33.80;;;;;;6246550;23;19965;-77
2023/06/15 09:24:22;;;;;;;;;;;27.00;34.50;;;;;;6245695;23;20301;-76
2023/06/15 09:26:48;;;;;;;;;;;27.00;34.00;;;;;;6244915;23;19919;-78
2023/06/15 09:29:14;;;;;;;;;;;27.00;33.30;;;;;;6245801;23;19919;-78
2023/06/15 09:31:41;;;;;;;;;;;27.20;33.10;;;;;;6245060;23;19908;-77
2023/06/15 09:34:09;;;;;;;;;;;27.40;32.20;;;;;;6245719;23;20265;-76
2023/06/15 09:36:48;;;;;;;;;;;27.60;32.60;;;;;;6244869;23;20337;-77
2023/06/15 09:39:15;;;;;;;;;;;27.90;32.40;;;;;;6220376;23;19916;-77
2023/06/15 09:42:00;;;;;;;;;;;28.20;32.80;;;;;;6219430;23;20325;-77
2023/06/15 09:44:27;;;;;;;;;;;28.50;31.80;;;;;;6220164;23;19930;-76
2023/06/15 09:46:57;;;;;;;;;;;28.90;31.10;;;;;;6244661;23;19918;-78
2023/06/15 09:49:25;;;;;;;;;;;29.60;30.50;;;;;;6245357;22;19916;-78
2023/06/15 09:51:52;;;;;;;;;;;30.30;30.00;;;;;;6244581;23;19938;-77
2023/06/15 09:54:21;;;;;;;;;;;31.10;28.60;;;;;;6245083;22;19922;-77
2023/06/15 09:57:06;;;;;;;;;;;31.80;28.00;;;;;;6243894;23;20318;-78
2023/06/15 09:59:32;;;;;;;;;;;32.40;27.40;;;;;;6245331;22;19922;-77
2023/06/15 10:02:00;;;;;;;;;;;33.20;27.10;;;;;;6244517;23;19987;-77
2023/06/15 10:04:46;;;;;;;;;;;33.70;26.20;;;;;;6245301;23;19934;-77
2023/06/15 10:07:13;;;;;;;;;;;34.40;25.50;;;;;;6246124;22;19908;-78
2023/06/15 10:09:58;;;;;;;;;;;34.70;24.60;;;;;;6245053;23;19908;-77
2023/06/15 10:12:25;;;;;;;;;;;34.80;23.90;;;;;;6244270;22;19915;-77
2023/06/15 10:14:55;;;;;;;;;;;35.30;23.50;;;;;;6219811;23;20543;-78
2023/06/15 10:17:41;;;;;;;;;;;35.90;23.10;;;;;;6244502;22;19961;-78
2023/06/15 10:20:27;;;;;;;;;;;36.70;22.80;;;;;;6244628;23;19907;-76
2023/06/15 10:23:13;;;;;;;;;;;37.50;21.80;;;;;;6219527;23;19920;-78
2023/06/15 10:25:42;;;;;;;;;;;37.90;21.50;;;;;;6244269;23;19946;-77
2023/06/15 10:31:10;;;;;;;;;;;38.20;20.90;;;;;;6244730;23;20241;-76
2023/06/15 10:34:14;;;;;;;;;;;37.90;20.60;;;;;;6246895;23;20209;-78
2023/06/15 10:36:47;;;;;;;;;;;38.60;20.40;;;;;;6245640;22;19930;-77
2023/06/15 10:39:35;;;;;;;;;;;39.50;19.00;;;;;;6245281;23;19971;-79
2023/06/15 10:42:07;;;;;;;;;;;40.10;19.10;;;;;;6244201;22;19907;-78
2023/06/15 10:44:33;;;;;;;;;;;40.20;18.30;;;;;;6219668;23;19953;-77
2023/06/15 10:47:20;;;;;;;;;;;40.00;18.30;;;;;;6243823;22;19911;-79
2023/06/15 10:50:04;;;;;;;;;;;38.50;18.90;;;;;;6244743;22;19911;-79
2023/06/15 10:52:34;;;;;;;;;;;38.70;18.50;;;;;;6218952;23;19912;-77
2023/06/15 10:55:07;;;;;;;;;;;38.10;19.10;;;;;;6244572;23;19965;-79
2023/06/15 10:57:35;;;;;;;;;;;37.30;19.70;;;;;;6246127;22;19911;-78
2023/06/15 11:00:04;;;;;;;;;;;38.60;19.40;;;;;;6244582;23;19918;-79
2023/06/15 11:02:48;;;;;;;;;;;39.90;18.20;;;;;;6245836;22;19919;-77
2023/06/15 11:05:17;;;;;;;;;;;41.10;18.30;;;;;;6245612;23;19919;-77
2023/06/15 11:07:47;;;;;;;;;;;41.90;16.70;;;;;;6244618;22;19951;-78
2023/06/15 11:10:37;;;;;;;;;;;42.50;15.90;;;;;;6243864;23;19911;-76
2023/06/15 11:13:04;;;;;;;;;;;43.20;15.80;;;;;;6244706;23;19911;-77
2023/06/15 11:15:36;;;;;;;;;;;42.90;15.50;;;;;;6245668;22;20352;-78
2023/06/15 11:18:04;;;;;;;;;;;41.60;16.30;;;;;;6244416;22;19997;-77
2023/06/15 11:21:07;;;;;;;;;;;41.90;16.20;;;;;;6244110;23;19911;-78
2023/06/15 11:23:33;;;;;;;;;;;41.50;15.60;;;;;;6245948;23;19912;-77
2023/06/15 11:26:01;;;;;;;;;;;41.40;16.20;;;;;;6245540;23;20222;-78
2023/06/15 11:28:31;;;;;;;;;;;41.40;16.00;;;;;;6244630;23;19934;-78
2023/06/15 11:31:16;;;;;;;;;;;41.20;16.20;;;;;;6243979;23;19917;-79
2023/06/15 11:33:42;;;;;;;;;;;42.20;16.00;;;;;;6219125;23;19986;-78
2023/06/15 11:36:10;;;;;;;;;;;43.30;15.10;;;;;;6243778;23;19994;-79
2023/06/15 11:38:37;;;;;;;;;;;43.10;15.50;;;;;;6244681;22;20218;-78
2023/06/15 11:41:10;;;;;;;;;;;41.90;15.50;;;;;;6244186;23;19972;-77
2023/06/15 11:43:56;;;;;;;;;;;41.00;16.50;;;;;;6244205;22;19945;-78
2023/06/15 11:46:23;;;;;;;;;;;40.10;16.50;;;;;;6257027;22;19986;-77
2023/06/15 11:48:54;;;;;;;;;;;39.90;16.50;;;;;;6249746;22;19946;-77
2023/06/15 11:51:20;;;;;;;;;;;39.30;16.90;;;;;;6249118;22;20152;-77
2023/06/15 11:53:46;;;;;;;;;;;38.50;17.40;;;;;;6249819;22;19930;-76
2023/06/15 11:56:15;;;;;;;;;;;37.60;17.30;;;;;;6248918;22;19942;-78
2023/06/15 11:58:42;;;;;;;;;;;37.10;18.80;;;;;;6249522;22;19911;-76
2023/06/15 12:01:11;;;;;;;;;;;38.60;17.80;;;;;;6248992;22;19915;-77
2023/06/15 12:03:40;;;;;;;;;;;40.70;17.10;;;;;;6250079;22;19985;-76
2023/06/15 12:06:06;;;;;;;;;;;41.20;16.30;;;;;;6249412;22;20005;-77
2023/06/15 12:08:32;;;;;;;;;;;41.10;15.80;;;;;;6249489;22;19907;-77
2023/06/15 12:10:58;;;;;;;;;;;40.10;16.20;;;;;;6248819;22;19915;-77
2023/06/15 12:13:25;;;;;;;;;;;39.20;17.10;;;;;;6249495;22;19965;-78
2023/06/15 12:15:52;;;;;;;;;;;40.10;17.10;;;;;;6248858;22;20261;-77
2023/06/15 12:21:05;;;;;;;;;;;42.10;15.10;;;;;;6277066;22;19990;-78
2023/06/15 12:23:32;;;;;;;;;;;43.30;15.20;;;;;;6251299;22;19961;-78
2023/06/15 12:26:00;;;;;;;;;;;42.50;15.20;;;;;;6277701;22;20245;-79
2023/06/15 12:28:27;;;;;;;;;;;41.00;16.20;;;;;;6251352;22;19907;-78
2023/06/15 12:31:11;;;;;;;;;;;39.90;16.50;;;;;;6250615;22;19915;-77
2023/06/15 12:33:39;;;;;;;;;;;40.90;16.00;;;;;;6225904;22;20251;-78
2023/06/15 12:36:25;;;;;;;;;;;40.50;16.30;;;;;;6250889;22;20137;-77
2023/06/15 12:38:51;;;;;;;;;;;39.20;17.30;;;;;;6251239;22;19938;-78
2023/06/15 12:41:18;;;;;;;;;;;38.50;17.50;;;;;;6277464;22;19923;-77
2023/06/15 12:43:47;;;;;;;;;;;37.50;17.80;;;;;;6278570;22;19964;-78
2023/06/15 12:46:13;;;;;;;;;;;36.60;19.00;;;;;;6277326;22;20033;-78
2023/06/15 12:48:39;;;;;;;;;;;35.80;19.00;;;;;;6250296;22;19911;-77
2023/06/15 12:51:05;;;;;;;;;;;35.60;19.60;;;;;;6250504;22;20288;-78
2023/06/15 12:53:31;;;;;;;;;;;37.40;18.20;;;;;;6251023;22;19915;-77
2023/06/15 12:55:57;;;;;;;;;;;39.00;17.70;;;;;;6277329;22;19938;-76
2023/06/15 12:58:22;;;;;;;;;;;39.40;17.30;;;;;;6250867;22;19911;-78
2023/06/15 13:00:48;;;;;;;;;;;39.30;17.70;;;;;;6224898;22;19998;-78
2023/06/15 13:03:14;;;;;;;;;;;38.90;17.60;;;;;;6225777;22;19947;-78
2023/06/15 13:05:41;;;;;;;;;;;38.20;18.20;;;;;;6250312;22;20321;-77
2023/06/15 13:08:07;;;;;;;;;;;37.20;19.10;;;;;;6251026;22;19919;-77
2023/06/15 13:10:33;;;;;;;;;;;36.80;19.10;;;;;;6250219;22;19911;-77
2023/06/15 13:12:59;;;;;;;;;;;36.00;20.10;;;;;;6225369;22;19918;-77
2023/06/15 13:15:26;;;;;;;;;;;35.20;20.50;;;;;;6250222;22;19911;-77
2023/06/15 13:17:53;;;;;;;;;;;34.50;21.20;;;;;;6225134;22;19911;-77
2023/06/15 13:20:19;;;;;;;;;;;34.00;22.30;;;;;;6277247;22;19991;-77
2023/06/15 13:25:30;;;;;;;;;;;34.10;22.80;;;;;;6253934;22;19999;-77
2023/06/15 13:27:56;;;;;;;;;;;34.20;22.30;;;;;;6250655;22;19969;-76
2023/06/15 13:30:23;;;;;;;;;;;34.30;22.30;;;;;;6250101;22;19942;-76
2023/06/15 13:32:49;;;;;;;;;;;34.00;22.40;;;;;;6277770;22;19919;-76
2023/06/15 13:35:16;;;;;;;;;;;33.80;22.50;;;;;;6224695;22;20225;-77
2023/06/15 13:37:42;;;;;;;;;;;33.70;22.60;;;;;;6277615;22;19919;-77
2023/06/15 13:40:10;;;;;;;;;;;33.70;22.70;;;;;;6250522;22;19911;-77
2023/06/15 13:42:55;;;;;;;;;;;33.60;22.60;;;;;;6250646;22;19955;-77
2023/06/15 13:45:24;;;;;;;;;;;33.60;22.60;;;;;;6277002;22;19911;-77
2023/06/15 13:47:52;;;;;;;;;;;33.50;22.80;;;;;;6277014;22;19918;-77
2023/06/15 13:50:18;;;;;;;;;;;33.60;22.90;;;;;;6249875;22;19934;-76
2023/06/15 13:52:47;;;;;;;;;;;33.80;22.80;;;;;;6250463;22;19922;-77
2023/06/15 13:55:13;;;;;;;;;;;33.80;22.90;;;;;;6250292;22;20294;-77
2023/06/15 13:57:39;;;;;;;;;;;33.50;23.10;;;;;;6250264;22;19954;-78
2023/06/15 14:00:07;;;;;;;;;;;33.30;23.50;;;;;;6276915;22;19992;-77
2023/06/15 14:02:33;;;;;;;;;;;32.90;23.30;;;;;;6250618;22;19912;-75
2023/06/15 14:04:59;;;;;;;;;;;32.70;23.80;;;;;;6250197;22;19934;-77
2023/06/15 14:07:25;;;;;;;;;;;32.60;25.20;;;;;;6276623;22;19912;-76
2023/06/15 14:09:51;;;;;;;;;;;32.40;24.60;;;;;;6224852;22;20226;-76
2023/06/15 14:12:17;;;;;;;;;;;32.30;24.70;;;;;;6224206;22;19954;-76
2023/06/15 14:14:43;;;;;;;;;;;32.10;25.10;;;;;;6250318;22;19980;-77
2023/06/15 14:17:09;;;;;;;;;;;32.00;25.30;;;;;;6276454;22;19907;-77
2023/06/15 14:19:37;;;;;;;;;;;32.00;25.00;;;;;;6250144;22;19911;-77
2023/06/15 14:22:03;;;;;;;;;;;32.00;25.50;;;;;;6249691;22;19978;-77
2023/06/15 14:24:29;;;;;;;;;;;31.90;24.90;;;;;;6250106;22;19950;-77
2023/06/15 14:26:55;;;;;;;;;;;31.90;25.30;;;;;;6276436;22;19911;-76
2023/06/15 14:29:21;;;;;;;;;;;31.80;25.40;;;;;;6224740;22;19961;-77
2023/06/15 14:31:49;;;;;;;;;;;31.80;25.40;;;;;;6276416;22;19938;-76
2023/06/15 14:34:17;;;;;;;;;;;31.90;25.10;;;;;;6250696;22;19922;-77